createdAt,value
2018-12-20T00:00:15.991Z,8.74
2018-12-20T00:02:43.828Z,8.64
2018-12-20T00:05:11.873Z,8.61
2018-12-20T00:07:39.432Z,8.48
2018-12-20T00:10:06.837Z,8.57
2018-12-20T00:12:34.302Z,8.65
2018-12-20T00:15:01.847Z,8.75
2018-12-20T00:17:34.725Z,8.81
2018-12-20T00:20:02.335Z,8.80
2018-12-20T00:22:29.764Z,8.83
2018-12-20T00:24:57.107Z,8.84
2018-12-20T00:27:24.588Z,8.67
2018-12-20T00:29:52.065Z,8.64
2018-12-20T00:32:19.525Z,8.69
2018-12-20T00:34:47.088Z,8.73
2018-12-20T00:37:14.490Z,8.83
2018-12-20T00:39:41.960Z,8.80
2018-12-20T00:42:09.368Z,8.81
2018-12-20T00:44:37.535Z,8.73
2018-12-20T00:47:05.220Z,8.65
2018-12-20T00:49:32.963Z,8.71
2018-12-20T00:52:00.703Z,8.66
2018-12-20T00:54:28.150Z,8.79
2018-12-20T00:56:55.775Z,8.79
2018-12-20T00:59:23.376Z,8.78
2018-12-20T01:01:50.812Z,8.81
2018-12-20T01:04:18.318Z,8.61
2018-12-20T01:06:45.889Z,8.36
2018-12-20T01:09:13.366Z,8.60
2018-12-20T01:11:40.808Z,8.65
2018-12-20T01:14:09.357Z,8.58
2018-12-20T01:16:37.000Z,8.56
2018-12-20T01:19:05.243Z,8.60
2018-12-20T01:21:32.660Z,8.49
2018-12-20T01:24:00.106Z,8.55
2018-12-20T01:26:27.540Z,8.61
2018-12-20T01:28:55.098Z,8.36
2018-12-20T01:31:22.485Z,8.47
2018-12-20T01:33:49.887Z,8.33
2018-12-20T01:36:18.476Z,8.41
2018-12-20T01:38:45.973Z,8.31
2018-12-20T01:41:13.301Z,8.54
2018-12-20T01:43:40.756Z,8.27
2018-12-20T01:46:08.392Z,8.58
2018-12-20T01:48:36.478Z,8.57
2018-12-20T01:51:03.881Z,8.58
2018-12-20T01:53:31.361Z,8.66
2018-12-20T01:55:58.862Z,8.58
2018-12-20T01:58:26.312Z,8.42
2018-12-20T02:00:53.724Z,8.39
2018-12-20T02:03:21.262Z,8.52
2018-12-20T02:05:48.579Z,8.22
2018-12-20T02:08:16.029Z,8.43
2018-12-20T02:10:43.493Z,8.11
2018-12-20T02:13:11.064Z,8.12
2018-12-20T02:15:38.437Z,8.36
2018-12-20T02:18:05.873Z,8.45
2018-12-20T02:20:33.215Z,8.37
2018-12-20T02:23:00.658Z,8.33
2018-12-20T02:25:28.153Z,8.49
2018-12-20T02:27:55.606Z,8.55
2018-12-20T02:30:23.337Z,8.53
2018-12-20T02:32:50.573Z,8.36
2018-12-20T02:35:18.008Z,8.63
2018-12-20T02:37:45.634Z,8.62
2018-12-20T02:40:13.018Z,8.62
2018-12-20T02:42:40.323Z,8.53
2018-12-20T02:45:10.963Z,8.64
2018-12-20T02:47:35.157Z,8.71
2018-12-20T02:50:02.572Z,8.72
2018-12-20T02:52:30.198Z,8.76
2018-12-20T02:54:57.451Z,8.70
2018-12-20T02:57:24.923Z,8.73
2018-12-20T02:59:52.603Z,8.48
2018-12-20T03:02:19.926Z,8.67
2018-12-20T03:04:47.200Z,8.71
2018-12-20T03:07:14.650Z,8.49
2018-12-20T03:09:42.071Z,8.63
2018-12-20T03:12:09.747Z,8.60
2018-12-20T03:14:36.972Z,8.72
2018-12-20T03:17:05.172Z,8.61
2018-12-20T03:19:32.835Z,8.73
2018-12-20T03:22:00.100Z,8.67
2018-12-20T03:24:27.633Z,8.76
2018-12-20T03:26:55.151Z,8.56
2018-12-20T03:29:22.683Z,8.52
2018-12-20T03:31:51.058Z,8.60
2018-12-20T03:34:19.636Z,8.59
2018-12-20T03:36:47.255Z,8.36
2018-12-20T03:39:14.648Z,8.45
2018-12-20T03:41:41.959Z,8.61
2018-12-20T03:44:09.455Z,8.69
2018-12-20T03:46:36.864Z,8.66
2018-12-20T03:49:05.432Z,8.61
2018-12-20T03:51:32.705Z,8.61
2018-12-20T03:54:00.287Z,8.46
2018-12-20T03:56:27.825Z,8.54
2018-12-20T03:58:55.033Z,8.68
2018-12-20T04:01:22.471Z,8.73
2018-12-20T04:03:49.944Z,8.16
2018-12-20T04:06:17.349Z,8.19
2018-12-20T04:08:44.775Z,8.42
2018-12-20T04:11:12.200Z,8.58
2018-12-20T04:13:39.652Z,8.55
2018-12-20T04:16:07.072Z,8.31
2018-12-20T04:18:35.432Z,8.31
2018-12-20T04:21:03.157Z,8.01
2018-12-20T04:23:30.378Z,8.42
2018-12-20T04:25:57.982Z,8.63
2018-12-20T04:28:25.257Z,8.39
2018-12-20T04:30:52.712Z,8.73
2018-12-20T04:33:20.156Z,8.65
2018-12-20T04:35:47.629Z,8.79
2018-12-20T04:38:15.272Z,8.47
2018-12-20T04:40:42.720Z,8.25
2018-12-20T04:43:10.086Z,8.45
2018-12-20T04:45:37.430Z,8.53
2018-12-20T04:48:04.853Z,8.55
2018-12-20T04:50:32.476Z,8.66
2018-12-20T04:52:59.747Z,8.49
2018-12-20T04:55:27.189Z,8.55
2018-12-20T04:57:54.619Z,8.57
2018-12-20T05:00:22.061Z,8.51
2018-12-20T05:02:49.474Z,8.46
2018-12-20T05:05:16.971Z,8.18
2018-12-20T05:07:44.411Z,8.53
2018-12-20T05:10:11.843Z,8.55
2018-12-20T05:12:39.415Z,8.59
2018-12-20T05:15:06.817Z,8.33
2018-12-20T05:17:34.181Z,8.19
2018-12-20T05:20:01.867Z,8.38
2018-12-20T05:22:29.189Z,8.26
2018-12-20T05:24:57.380Z,8.41
2018-12-20T05:27:24.981Z,8.36
2018-12-20T05:29:52.356Z,8.28
2018-12-20T05:32:20.001Z,8.13
2018-12-20T05:34:47.366Z,8.14
2018-12-20T05:37:14.676Z,8.39
2018-12-20T05:39:42.101Z,8.20
2018-12-20T05:42:09.754Z,8.39
2018-12-20T05:44:37.184Z,8.37
2018-12-20T05:47:05.178Z,8.03
2018-12-20T05:49:32.614Z,8.04
2018-12-20T05:52:00.062Z,8.28
2018-12-20T05:54:27.513Z,8.24
2018-12-20T05:56:54.977Z,8.16
2018-12-20T05:59:22.360Z,8.03
2018-12-20T06:01:49.788Z,7.95
2018-12-20T06:04:17.220Z,8.27
2018-12-20T06:06:44.786Z,8.12
2018-12-20T06:09:12.117Z,7.83
2018-12-20T06:11:39.842Z,8.04
2018-12-20T06:14:07.037Z,8.03
2018-12-20T06:16:34.428Z,8.16
2018-12-20T06:19:01.900Z,8.22
2018-12-20T06:21:29.355Z,8.22
2018-12-20T06:23:56.796Z,8.22
2018-12-20T06:26:24.229Z,8.33
2018-12-20T06:28:51.640Z,8.19
2018-12-20T06:31:19.065Z,8.19
2018-12-20T06:33:46.475Z,7.97
2018-12-20T06:36:13.905Z,7.92
2018-12-20T06:38:41.314Z,8.04
2018-12-20T06:41:08.776Z,8.14
2018-12-20T06:43:36.265Z,8.27
2018-12-20T06:46:03.705Z,8.22
2018-12-20T06:48:31.140Z,8.18
2018-12-20T06:50:58.623Z,8.16
2018-12-20T06:53:26.064Z,7.81
2018-12-20T06:55:53.519Z,7.93
2018-12-20T06:58:21.866Z,7.91
2018-12-20T07:00:49.368Z,8.22
2018-12-20T07:03:16.826Z,8.05
2018-12-20T07:05:44.259Z,7.75
2018-12-20T07:08:11.690Z,8.11
2018-12-20T07:10:39.125Z,8.21
2018-12-20T07:13:06.540Z,8.29
2018-12-20T07:15:33.977Z,7.98
2018-12-20T07:18:01.419Z,8.27
2018-12-20T07:20:28.865Z,8.19
2018-12-20T07:22:56.297Z,8.15
2018-12-20T07:25:23.718Z,7.98
2018-12-20T07:27:51.141Z,7.89
2018-12-20T07:30:18.569Z,8.02
2018-12-20T07:32:46.008Z,8.09
2018-12-20T07:35:13.431Z,7.87
2018-12-20T07:37:40.857Z,7.84
2018-12-20T07:40:08.275Z,7.58
2018-12-20T07:42:35.707Z,7.77
2018-12-20T07:45:03.129Z,8.06
2018-12-20T07:47:31.976Z,8.17
2018-12-20T07:49:59.487Z,8.10
2018-12-20T07:52:26.956Z,8.02
2018-12-20T07:54:54.373Z,8.28
2018-12-20T07:57:21.832Z,8.01
2018-12-20T07:59:49.289Z,8.23
2018-12-20T08:02:16.750Z,8.13
2018-12-20T08:04:44.239Z,8.33
2018-12-20T08:07:11.662Z,8.50
2018-12-20T08:09:40.989Z,8.50
2018-12-20T08:12:08.404Z,8.30
2018-12-20T08:14:35.832Z,8.27
2018-12-20T08:17:03.277Z,8.29
2018-12-20T08:19:36.187Z,8.07
2018-12-20T08:21:58.231Z,8.08
2018-12-20T08:24:25.663Z,8.33
2018-12-20T08:26:53.111Z,8.34
2018-12-20T08:29:20.549Z,8.55
2018-12-20T08:31:48.013Z,8.63
2018-12-20T08:34:15.437Z,8.47
2018-12-20T08:36:42.962Z,8.61
2018-12-20T08:39:10.405Z,8.48
2018-12-20T08:41:37.823Z,8.54
2018-12-20T08:44:05.264Z,8.49
2018-12-20T08:46:33.969Z,8.58
2018-12-20T08:49:01.468Z,8.39
2018-12-20T08:51:28.879Z,8.49
2018-12-20T08:53:56.314Z,8.58
2018-12-20T08:56:23.726Z,8.37
2018-12-20T08:58:51.143Z,8.54
2018-12-20T09:01:18.577Z,8.54
2018-12-20T09:03:45.984Z,8.32
2018-12-20T09:06:13.413Z,8.48
2018-12-20T09:08:40.829Z,8.26
2018-12-20T09:11:08.257Z,8.03
2018-12-20T09:13:35.709Z,8.30
2018-12-20T09:16:03.458Z,8.37
2018-12-20T09:18:30.892Z,8.36
2018-12-20T09:20:58.317Z,8.48
2018-12-20T09:23:25.758Z,8.11
2018-12-20T09:25:53.164Z,8.09
2018-12-20T09:28:20.618Z,8.55
2018-12-20T09:30:48.808Z,8.28
2018-12-20T09:33:17.284Z,8.43
2018-12-20T09:35:45.255Z,8.57
2018-12-20T09:38:12.781Z,8.19
2018-12-20T09:40:40.271Z,8.43
2018-12-20T09:43:07.690Z,8.44
2018-12-20T09:45:35.188Z,8.23
2018-12-20T09:48:05.361Z,8.28
2018-12-20T09:50:33.956Z,8.34
2018-12-20T09:53:01.391Z,8.01
2018-12-20T09:55:28.828Z,8.27
2018-12-20T09:57:56.260Z,8.29
2018-12-20T10:00:23.689Z,8.21
2018-12-20T10:02:51.095Z,8.09
2018-12-20T10:05:18.569Z,8.15
2018-12-20T10:07:46.003Z,8.09
2018-12-20T10:10:13.445Z,7.92
2018-12-20T10:12:40.875Z,8.09
2018-12-20T10:15:08.321Z,8.06
2018-12-20T10:17:35.751Z,8.20
2018-12-20T10:20:03.209Z,8.05
2018-12-20T10:22:30.638Z,7.99
2018-12-20T10:24:58.081Z,8.25
2018-12-20T10:27:31.428Z,8.14
2018-12-20T10:29:52.969Z,8.23
2018-12-20T10:32:20.387Z,8.47
2018-12-20T10:34:47.897Z,8.17
2018-12-20T10:37:15.271Z,8.04
2018-12-20T10:39:42.708Z,8.38
2018-12-20T10:42:10.146Z,8.10
2018-12-20T10:44:37.577Z,8.30
2018-12-20T10:47:10.694Z,8.11
2018-12-20T10:49:38.127Z,8.27
2018-12-20T10:52:05.588Z,8.27
2018-12-20T10:54:33.057Z,8.36
2018-12-20T10:57:00.459Z,8.40
2018-12-20T10:59:27.887Z,8.42
2018-12-20T11:02:10.223Z,8.49
2018-12-20T11:04:43.315Z,8.15
2018-12-20T11:07:16.417Z,8.34
2018-12-20T11:09:49.460Z,8.10
2018-12-20T11:12:31.822Z,8.18
2018-12-20T11:14:59.228Z,8.08
2018-12-20T11:17:26.691Z,7.97
2018-12-20T11:19:54.124Z,8.30
2018-12-20T11:22:21.761Z,8.23
2018-12-20T11:24:49.196Z,8.10
2018-12-20T11:27:16.832Z,8.01
2018-12-20T11:29:44.423Z,7.89
2018-12-20T11:32:11.916Z,8.25
2018-12-20T11:34:39.320Z,8.05
2018-12-20T11:37:06.762Z,8.22
2018-12-20T11:39:34.185Z,7.90
2018-12-20T11:42:01.673Z,7.95
2018-12-20T11:44:29.104Z,8.17
2018-12-20T11:46:56.530Z,8.10
2018-12-20T11:49:23.958Z,8.19
2018-12-20T11:51:51.436Z,8.36
2018-12-20T11:54:18.893Z,8.42
2018-12-20T11:56:46.317Z,8.43
2018-12-20T11:59:13.761Z,8.34
2018-12-20T12:01:41.200Z,8.41
2018-12-20T12:04:08.650Z,8.42
2018-12-20T12:06:36.136Z,8.28
2018-12-20T12:09:03.571Z,8.44
2018-12-20T12:11:31.030Z,8.46
2018-12-20T12:13:58.453Z,8.30
2018-12-20T12:16:25.885Z,8.41
2018-12-20T12:18:53.318Z,8.29
2018-12-20T12:21:21.733Z,8.33
2018-12-20T12:23:49.224Z,8.34
2018-12-20T12:26:16.681Z,8.32
2018-12-20T12:28:44.111Z,8.24
2018-12-20T12:31:11.566Z,8.39
2018-12-20T12:33:39.000Z,8.45
2018-12-20T12:36:06.448Z,8.42
2018-12-20T12:38:33.852Z,8.44
2018-12-20T12:41:01.312Z,8.25
2018-12-20T12:43:28.733Z,8.11
2018-12-20T12:45:56.218Z,8.38
2018-12-20T12:48:23.654Z,8.51
2018-12-20T12:50:51.062Z,8.62
2018-12-20T12:53:18.514Z,8.29
2018-12-20T12:55:46.209Z,8.50
2018-12-20T12:58:13.634Z,8.57
2018-12-20T13:00:41.065Z,8.54
2018-12-20T13:03:08.520Z,8.32
2018-12-20T13:05:35.964Z,8.52
2018-12-20T13:08:03.404Z,8.74
2018-12-20T13:10:30.881Z,8.29
2018-12-20T13:12:58.299Z,8.57
2018-12-20T13:15:25.740Z,8.42
2018-12-20T13:17:53.178Z,8.58
2018-12-20T13:20:20.599Z,8.79
2018-12-20T13:22:48.037Z,8.79
2018-12-20T13:25:15.439Z,8.83
2018-12-20T13:27:42.877Z,8.90
2018-12-20T13:30:11.426Z,8.64
2018-12-20T13:32:38.842Z,8.52
2018-12-20T13:35:06.283Z,8.36
2018-12-20T13:37:33.745Z,8.58
2018-12-20T13:40:01.197Z,8.31
2018-12-20T13:42:28.628Z,8.57
2018-12-20T13:44:56.051Z,8.70
2018-12-20T13:47:23.494Z,8.65
2018-12-20T13:49:50.919Z,8.72
2018-12-20T13:52:18.373Z,8.72
2018-12-20T13:54:45.789Z,8.90
2018-12-20T13:57:13.259Z,8.66
2018-12-20T13:59:40.681Z,8.71
2018-12-20T14:02:08.359Z,8.66
2018-12-20T14:04:37.572Z,8.76
2018-12-20T14:07:06.289Z,8.80
2018-12-20T14:09:34.364Z,8.75
2018-12-20T14:12:01.803Z,8.77
2018-12-20T14:14:29.221Z,8.90
2018-12-20T14:16:56.631Z,8.88
2018-12-20T14:19:24.081Z,8.89
2018-12-20T14:21:51.488Z,8.55
2018-12-20T14:24:18.938Z,8.33
2018-12-20T14:26:46.367Z,8.33
2018-12-20T14:29:13.858Z,8.35
2018-12-20T14:31:41.282Z,8.35
2018-12-20T14:34:08.753Z,8.24
2018-12-20T14:36:36.197Z,8.37
2018-12-20T14:39:03.642Z,8.31
2018-12-20T14:41:31.098Z,8.57
2018-12-20T14:43:58.535Z,8.29
2018-12-20T14:46:25.936Z,8.64
2018-12-20T14:48:53.389Z,8.58
2018-12-20T14:51:20.828Z,8.44
2018-12-20T14:53:49.166Z,8.46
2018-12-20T14:56:16.705Z,8.64
2018-12-20T14:58:44.166Z,8.55
2018-12-20T15:01:11.615Z,8.21
2018-12-20T15:03:39.047Z,8.33
2018-12-20T15:06:06.483Z,8.43
2018-12-20T15:08:33.903Z,8.40
2018-12-20T15:11:01.371Z,8.08
2018-12-20T15:13:28.811Z,7.83
2018-12-20T15:15:57.500Z,7.71
2018-12-20T15:18:25.042Z,7.91
2018-12-20T15:20:52.475Z,7.88
2018-12-20T15:23:19.910Z,7.83
2018-12-20T15:25:47.359Z,7.98
2018-12-20T15:28:14.810Z,7.83
2018-12-20T15:30:42.206Z,7.66
2018-12-20T15:33:09.648Z,7.68
2018-12-20T15:35:37.097Z,7.94
2018-12-20T15:38:04.551Z,8.16
2018-12-20T15:40:31.991Z,7.94
2018-12-20T15:42:59.407Z,7.93
2018-12-20T15:45:26.874Z,7.95
2018-12-20T15:47:54.311Z,8.01
2018-12-20T15:50:22.914Z,7.91
2018-12-20T15:52:50.436Z,7.83
2018-12-20T15:55:17.796Z,8.03
2018-12-20T15:57:45.248Z,7.99
2018-12-20T16:00:12.681Z,7.87
2018-12-20T16:02:40.214Z,7.57
2018-12-20T16:05:07.581Z,7.66
2018-12-20T16:07:35.049Z,7.91
2018-12-20T16:10:02.497Z,7.53
2018-12-20T16:12:30.763Z,7.64
2018-12-20T16:14:58.424Z,7.70
2018-12-20T16:17:25.873Z,7.71
2018-12-20T16:19:53.313Z,7.83
2018-12-20T16:22:20.810Z,7.63
2018-12-20T16:24:48.309Z,7.52
2018-12-20T16:27:15.753Z,7.66
2018-12-20T16:29:43.210Z,8.02
2018-12-20T16:32:10.661Z,7.66
2018-12-20T16:34:38.119Z,7.58
2018-12-20T16:37:05.558Z,7.58
2018-12-20T16:39:32.998Z,7.80
2018-12-20T16:42:00.443Z,7.89
2018-12-20T16:44:27.868Z,7.86
2018-12-20T16:46:55.288Z,7.93
2018-12-20T16:49:22.739Z,7.73
2018-12-20T16:51:50.171Z,7.72
2018-12-20T16:54:17.610Z,7.83
2018-12-20T16:56:45.086Z,8.04
2018-12-20T16:59:12.526Z,8.05
2018-12-20T17:01:39.955Z,7.82
2018-12-20T17:04:07.419Z,8.05
2018-12-20T17:06:34.852Z,7.85
2018-12-20T17:09:03.376Z,7.87
2018-12-20T17:11:30.889Z,7.87
2018-12-20T17:13:58.342Z,7.87
2018-12-20T17:16:25.788Z,7.80
2018-12-20T17:18:53.259Z,7.67
2018-12-20T17:21:20.697Z,7.99
2018-12-20T17:23:48.141Z,7.60
2018-12-20T17:26:15.602Z,7.96
2018-12-20T17:28:43.034Z,7.83
2018-12-20T17:31:10.487Z,7.64
2018-12-20T17:33:37.938Z,7.62
2018-12-20T17:36:05.400Z,7.70
2018-12-20T17:38:32.818Z,7.82
2018-12-20T17:41:00.291Z,7.85
2018-12-20T17:43:27.743Z,7.92
2018-12-20T17:45:55.177Z,7.90
2018-12-20T17:48:29.061Z,7.71
2018-12-20T17:50:50.074Z,7.90
2018-12-20T17:53:17.569Z,7.68
2018-12-20T17:55:45.440Z,7.63
2018-12-20T17:58:12.904Z,7.63
2018-12-20T18:00:40.470Z,7.90
2018-12-20T18:03:07.946Z,7.67
2018-12-20T18:05:35.356Z,7.57
2018-12-20T18:08:02.779Z,7.67
2018-12-20T18:10:30.259Z,7.57
2018-12-20T18:12:57.719Z,7.40
2018-12-20T18:15:25.143Z,7.62
2018-12-20T18:17:52.614Z,7.70
2018-12-20T18:20:20.035Z,7.83
2018-12-20T18:22:47.607Z,7.67
2018-12-20T18:25:15.018Z,7.81
2018-12-20T18:27:42.481Z,7.69
2018-12-20T18:30:11.267Z,7.64
2018-12-20T18:32:38.702Z,7.55
2018-12-20T18:35:06.179Z,7.36
2018-12-20T18:37:33.629Z,7.54
2018-12-20T18:40:01.203Z,7.47
2018-12-20T18:42:28.694Z,7.40
2018-12-20T18:44:56.120Z,7.61
2018-12-20T18:47:23.545Z,7.56
2018-12-20T18:49:50.959Z,7.37
2018-12-20T18:52:18.821Z,7.51
2018-12-20T18:54:46.279Z,7.49
2018-12-20T18:57:13.698Z,7.52
2018-12-20T18:59:41.160Z,7.44
2018-12-20T19:02:08.570Z,7.54
2018-12-20T19:04:36.008Z,7.61
2018-12-20T19:07:03.441Z,7.53
2018-12-20T19:09:30.904Z,7.63
2018-12-20T19:11:58.330Z,7.61
2018-12-20T19:14:25.795Z,7.57
2018-12-20T19:16:53.199Z,7.75
2018-12-20T19:19:20.631Z,7.54
2018-12-20T19:21:48.085Z,7.68
2018-12-20T19:24:15.521Z,7.53
2018-12-20T19:26:42.949Z,7.69
2018-12-20T19:29:10.389Z,7.47
2018-12-20T19:31:37.817Z,7.41
2018-12-20T19:34:05.314Z,7.58
2018-12-20T19:36:32.731Z,7.61
2018-12-20T19:39:00.167Z,7.56
2018-12-20T19:41:27.606Z,7.42
2018-12-20T19:43:55.061Z,7.58
2018-12-20T19:46:22.506Z,7.54
2018-12-20T19:48:50.057Z,7.59
2018-12-20T19:51:17.503Z,7.44
2018-12-20T19:53:44.958Z,7.54
2018-12-20T19:56:12.453Z,7.53
2018-12-20T19:58:39.889Z,7.48
2018-12-20T20:01:07.333Z,7.43
2018-12-20T20:03:34.799Z,7.46
2018-12-20T20:06:02.273Z,7.49
2018-12-20T20:08:29.704Z,7.46
2018-12-20T20:10:58.115Z,7.61
2018-12-20T20:13:30.683Z,7.48
2018-12-20T20:15:53.056Z,7.47
2018-12-20T20:18:20.485Z,7.46
2018-12-20T20:20:47.927Z,7.58
2018-12-20T20:23:15.373Z,7.44
2018-12-20T20:25:42.910Z,7.48
2018-12-20T20:28:10.358Z,7.50
2018-12-20T20:30:37.772Z,7.52
2018-12-20T20:33:05.477Z,7.64
2018-12-20T20:35:33.063Z,7.50
2018-12-20T20:38:00.367Z,7.49
2018-12-20T20:40:27.811Z,7.54
2018-12-20T20:42:55.245Z,7.65
2018-12-20T20:45:22.706Z,7.59
2018-12-20T20:47:50.122Z,7.59
2018-12-20T20:50:22.198Z,7.66
2018-12-20T20:52:45.025Z,7.68
2018-12-20T20:55:12.494Z,7.65
2018-12-20T20:57:39.911Z,7.64
2018-12-20T21:00:07.351Z,7.64
2018-12-20T21:02:34.789Z,7.56
2018-12-20T21:05:02.232Z,7.76
2018-12-20T21:07:29.668Z,7.57
2018-12-20T21:09:57.926Z,7.51
2018-12-20T21:12:25.356Z,7.67
2018-12-20T21:14:52.880Z,7.69
2018-12-20T21:17:20.279Z,7.82
2018-12-20T21:19:47.710Z,7.57
2018-12-20T21:22:15.150Z,7.73
2018-12-20T21:24:42.568Z,7.83
2018-12-20T21:27:10.019Z,7.66
2018-12-20T21:29:37.537Z,7.74
2018-12-20T21:32:04.986Z,7.68
2018-12-20T21:34:32.429Z,7.46
2018-12-20T21:36:59.873Z,7.64
2018-12-20T21:39:27.295Z,7.54
2018-12-20T21:41:54.765Z,7.66
2018-12-20T21:44:22.204Z,7.51
2018-12-20T21:46:49.641Z,7.35
2018-12-20T21:49:17.079Z,7.33
2018-12-20T21:51:44.529Z,7.31
2018-12-20T21:54:11.976Z,7.46
2018-12-20T21:56:39.420Z,7.33
2018-12-20T21:59:06.867Z,7.45
2018-12-20T22:01:34.330Z,7.69
2018-12-20T22:04:01.818Z,7.52
2018-12-20T22:06:29.373Z,7.60
2018-12-20T22:08:56.849Z,7.61
2018-12-20T22:11:24.282Z,7.66
2018-12-20T22:13:51.715Z,7.53
2018-12-20T22:16:19.169Z,7.73
2018-12-20T22:18:46.594Z,7.55
2018-12-20T22:21:14.025Z,7.88
2018-12-20T22:23:41.447Z,7.75
2018-12-20T22:26:08.924Z,7.80
2018-12-20T22:28:36.375Z,7.80
2018-12-20T22:31:03.815Z,7.64
2018-12-20T22:33:31.259Z,7.79
2018-12-20T22:35:58.703Z,7.95
2018-12-20T22:38:26.155Z,7.84
2018-12-20T22:40:53.594Z,7.85
2018-12-20T22:43:21.038Z,7.88
2018-12-20T22:45:48.476Z,7.89
2018-12-20T22:48:15.879Z,8.03
2018-12-20T22:50:43.310Z,7.82
2018-12-20T22:53:10.729Z,7.65
2018-12-20T22:55:38.164Z,7.88
2018-12-20T22:58:05.601Z,7.70
2018-12-20T23:00:33.076Z,7.79
2018-12-20T23:03:00.546Z,7.92
2018-12-20T23:05:28.035Z,7.92
2018-12-20T23:07:55.457Z,8.06
2018-12-20T23:10:23.322Z,7.94
2018-12-20T23:12:50.753Z,8.01
2018-12-20T23:15:18.196Z,8.00
2018-12-20T23:17:45.646Z,7.76
2018-12-20T23:20:13.110Z,7.66
2018-12-20T23:22:40.573Z,7.90
2018-12-20T23:25:08.011Z,7.78
2018-12-20T23:27:35.442Z,7.68
2018-12-20T23:30:02.890Z,7.83
2018-12-20T23:32:30.318Z,7.83
2018-12-20T23:34:57.755Z,7.99
2018-12-20T23:37:25.218Z,7.72
2018-12-20T23:39:52.657Z,7.74
2018-12-20T23:42:20.089Z,7.98
2018-12-20T23:44:47.546Z,7.94
2018-12-20T23:47:15.003Z,7.72
2018-12-20T23:49:42.426Z,7.82
2018-12-20T23:52:09.885Z,7.77
2018-12-20T23:54:37.307Z,7.81
2018-12-20T23:57:05.530Z,7.79
2018-12-20T23:59:32.996Z,7.97
